Time;durP1;ratioP1;P1;durP2;ratioP2;P2;SDS_P1;SDS_P2;PMS_P1;PMS_P2;Temp;Humidity;BMP_temperature;BMP_pressure;BME280_temperature;BME280_humidity;BME280_pressure;Samples;Min_cycle;Max_cycle;Signal;HPM_P1;HPM_P2
2022/12/06 00:01:10;;;;;;;27.23;11.73;;;1.00;99.90;;;;;;5028967;28;20972;-58
2022/12/06 00:03:37;;;;;;;27.83;11.80;;;1.00;99.90;;;;;;5031248;28;20425;-59
2022/12/06 00:06:05;;;;;;;21.03;11.47;;;1.00;99.90;;;;;;5004606;28;20943;-59
2022/12/06 00:08:31;;;;;;;20.57;10.17;;;1.00;99.90;;;;;;5024884;28;20466;-58
2022/12/06 00:11:07;;;;;;;22.40;10.97;;;1.00;99.90;;;;;;5028828;28;20832;-59
2022/12/06 00:13:33;;;;;;;26.00;11.57;;;1.00;99.90;;;;;;5029691;28;20180;-59
2022/12/06 00:16:01;;;;;;;42.50;12.40;;;1.00;99.90;;;;;;5028671;28;20521;-59
2022/12/06 00:18:27;;;;;;;31.00;13.03;;;1.00;99.90;;;;;;5022734;28;20529;-59
2022/12/06 00:20:52;;;;;;;35.30;13.23;;;1.00;99.90;;;;;;5029731;28;20545;-59
2022/12/06 00:23:18;;;;;;;54.07;12.67;;;1.00;99.90;;;;;;5012125;28;20719;-58
2022/12/06 00:25:43;;;;;;;49.07;14.27;;;1.00;99.90;;;;;;5030746;28;20279;-58
2022/12/06 00:28:09;;;;;;;142.67;16.67;;;1.00;99.90;;;;;;5030279;28;20277;-59
2022/12/06 00:30:34;;;;;;;118.27;14.07;;;1.00;99.90;;;;;;5027887;28;20218;-58
2022/12/06 00:33:00;;;;;;;62.83;11.40;;;1.00;99.90;;;;;;5014324;28;20181;-59
2022/12/06 00:35:26;;;;;;;43.73;10.53;;;1.00;99.90;;;;;;5029655;28;20852;-58
2022/12/06 00:37:51;;;;;;;45.13;10.53;;;1.00;99.90;;;;;;5020215;28;20199;-59
2022/12/06 00:40:17;;;;;;;21.53;10.37;;;1.00;99.90;;;;;;5012035;28;20187;-58
2022/12/06 00:42:42;;;;;;;53.23;9.90;;;0.90;99.90;;;;;;5030745;28;20183;-59
2022/12/06 00:45:08;;;;;;;76.30;12.10;;;0.90;99.90;;;;;;5028790;28;20189;-59
2022/12/06 00:47:34;;;;;;;287.67;19.67;;;0.80;99.90;;;;;;5024822;28;20716;-59
2022/12/06 00:49:59;;;;;;;47.67;10.10;;;0.80;99.90;;;;;;5025197;28;20512;-58
2022/12/06 00:52:25;;;;;;;115.77;15.47;;;0.70;99.90;;;;;;5027507;28;20186;-58
2022/12/06 00:54:50;;;;;;;60.73;10.60;;;0.70;99.90;;;;;;5019009;28;20202;-59
2022/12/06 00:57:16;;;;;;;32.23;10.37;;;0.70;99.90;;;;;;4999422;28;20213;-57
2022/12/06 00:59:41;;;;;;;55.73;10.63;;;0.70;99.90;;;;;;5027620;28;20183;-58
2022/12/06 01:02:08;;;;;;;293.10;18.53;;;0.70;99.90;;;;;;5029855;28;20265;-59
2022/12/06 01:04:35;;;;;;;189.33;14.03;;;0.70;99.90;;;;;;5007911;28;20241;-58
2022/12/06 01:07:01;;;;;;;183.27;15.10;;;0.70;99.90;;;;;;5008504;28;20504;-58
2022/12/06 01:09:29;;;;;;;173.83;13.00;;;0.70;99.90;;;;;;5028328;28;21096;-58
2022/12/06 01:11:56;;;;;;;104.97;13.93;;;0.70;99.90;;;;;;5016007;28;20189;-59
2022/12/06 01:14:21;;;;;;;42.57;11.63;;;0.60;99.90;;;;;;5029371;28;20488;-58
2022/12/06 01:16:47;;;;;;;33.57;9.60;;;0.60;99.90;;;;;;5027648;28;20477;-59
2022/12/06 01:19:12;;;;;;;153.60;13.37;;;0.60;99.90;;;;;;5028091;28;20748;-58
2022/12/06 01:21:38;;;;;;;144.93;13.10;;;0.60;99.90;;;;;;5028155;28;20173;-58
2022/12/06 01:24:04;;;;;;;86.33;11.07;;;0.60;99.90;;;;;;5026376;28;20191;-58
2022/12/06 01:26:32;;;;;;;104.10;12.40;;;0.60;99.90;;;;;;5029707;28;20674;-58
2022/12/06 01:28:59;;;;;;;194.60;18.50;;;0.60;99.90;;;;;;5025229;28;20194;-58
2022/12/06 01:31:25;;;;;;;312.60;18.23;;;0.60;99.90;;;;;;5029901;28;20469;-58
2022/12/06 01:33:50;;;;;;;196.90;14.70;;;0.50;99.90;;;;;;5027742;28;20508;-59
2022/12/06 01:36:25;;;;;;;399.57;23.40;;;0.50;99.90;;;;;;5030136;28;20819;-59
2022/12/06 01:38:52;;;;;;;319.97;21.80;;;0.50;99.90;;;;;;5027767;28;20179;-58
2022/12/06 01:41:20;;;;;;;69.77;10.80;;;0.40;99.90;;;;;;5028892;28;20436;-58
2022/12/06 01:43:46;;;;;;;95.17;10.80;;;0.40;99.90;;;;;;5009822;28;20899;-57
2022/12/06 01:46:30;;;;;;;104.90;11.00;;;0.40;99.90;;;;;;5029540;28;20446;-59
2022/12/06 01:49:12;;;;;;;40.17;9.03;;;0.40;99.90;;;;;;5033073;28;20796;-58
2022/12/06 01:51:46;;;;;;;169.20;12.60;;;0.30;99.90;;;;;;5031237;28;20432;-57
2022/12/06 01:54:14;;;;;;;149.50;12.50;;;0.30;99.90;;;;;;5028967;28;20460;-58
2022/12/06 01:56:40;;;;;;;224.87;14.40;;;0.40;99.90;;;;;;5030771;28;20974;-58
2022/12/06 01:59:08;;;;;;;247.77;16.20;;;0.40;99.90;;;;;;5028074;28;20442;-57
2022/12/06 02:01:34;;;;;;;88.40;10.90;;;0.40;99.90;;;;;;5008246;28;20472;-58
2022/12/06 02:04:00;;;;;;;80.97;11.20;;;0.30;99.90;;;;;;5014486;28;20417;-58
2022/12/06 02:06:28;;;;;;;172.30;15.03;;;0.30;99.90;;;;;;5026220;28;20972;-58
2022/12/06 02:08:57;;;;;;;121.67;11.70;;;0.30;99.90;;;;;;5031482;28;20187;-58
2022/12/06 02:11:23;;;;;;;37.97;11.47;;;0.30;99.90;;;;;;5024408;28;20440;-58
2022/12/06 02:13:49;;;;;;;78.30;13.83;;;0.30;99.90;;;;;;5030515;28;20507;-57
2022/12/06 02:16:32;;;;;;;452.23;29.43;;;0.40;99.90;;;;;;5010119;28;20450;-58
2022/12/06 02:19:29;;;;;;;216.40;18.57;;;0.30;99.90;;;;;;5032763;28;20491;-57
2022/12/06 02:22:12;;;;;;;335.70;24.60;;;0.30;99.90;;;;;;5024990;28;20952;-58
2022/12/06 02:25:15;;;;;;;319.93;23.43;;;0.20;99.90;;;;;;5026229;28;20434;-58
2022/12/06 02:28:09;;;;;;;199.13;17.57;;;0.20;99.90;;;;;;5033777;28;20455;-58
2022/12/06 02:30:37;;;;;;;159.27;16.63;;;0.20;99.90;;;;;;5025419;28;20440;-58
2022/12/06 02:33:07;;;;;;;157.87;19.00;;;0.20;99.90;;;;;;5025617;28;20956;-58
2022/12/06 02:35:41;;;;;;;380.70;22.83;;;0.10;99.90;;;;;;5025564;28;20893;-58
2022/12/06 02:38:14;;;;;;;277.07;19.60;;;0.10;99.90;;;;;;5025695;28;20524;-58
2022/12/06 02:40:49;;;;;;;145.37;14.67;;;0.00;99.90;;;;;;5029499;28;20440;-58
2022/12/06 02:43:22;;;;;;;121.70;14.97;;;0.00;99.90;;;;;;5031885;28;20507;-57
2022/12/06 02:45:52;;;;;;;186.47;15.77;;;0.00;99.90;;;;;;5006841;28;20464;-59
2022/12/06 02:48:20;;;;;;;42.80;13.33;;;0.00;99.90;;;;;;5028341;28;20474;-58
2022/12/06 02:50:53;;;;;;;180.63;17.37;;;0.00;99.90;;;;;;5011446;28;20521;-58
2022/12/06 02:53:21;;;;;;;65.70;12.83;;;0.00;99.90;;;;;;5031794;28;20465;-59
2022/12/06 02:55:49;;;;;;;27.30;11.40;;;0.00;99.90;;;;;;5026345;28;20474;-58
2022/12/06 02:58:15;;;;;;;76.37;12.60;;;0.10;99.90;;;;;;5020364;28;20457;-58
2022/12/06 03:00:49;;;;;;;184.10;14.80;;;0.10;99.90;;;;;;5016107;28;20940;-58
2022/12/06 03:03:41;;;;;;;181.13;16.53;;;0.10;99.90;;;;;;5035610;28;20182;-58
2022/12/06 03:06:25;;;;;;;43.50;11.57;;;0.10;99.90;;;;;;5023329;28;20498;-58
2022/12/06 03:09:12;;;;;;;43.83;11.90;;;0.10;99.90;;;;;;5023703;28;20468;-58
2022/12/06 03:11:49;;;;;;;34.40;11.47;;;0.10;99.90;;;;;;5025624;28;20519;-58
2022/12/06 03:14:21;;;;;;;131.37;13.60;;;0.20;99.90;;;;;;5012129;28;20490;-58
2022/12/06 03:16:57;;;;;;;221.53;19.33;;;0.20;99.90;;;;;;5009488;28;21003;-58
2022/12/06 03:19:27;;;;;;;123.07;13.93;;;0.20;99.90;;;;;;5030060;28;20912;-58
2022/12/06 03:22:01;;;;;;;102.53;12.70;;;0.20;99.90;;;;;;5019313;28;20942;-59
2022/12/06 03:24:30;;;;;;;59.53;10.00;;;0.10;99.90;;;;;;5029522;28;20458;-58
2022/12/06 03:26:58;;;;;;;72.97;11.17;;;0.10;99.90;;;;;;5032384;28;20507;-58
2022/12/06 03:29:27;;;;;;;31.33;10.60;;;0.10;99.90;;;;;;5034636;28;20419;-58
2022/12/06 03:31:54;;;;;;;39.67;9.90;;;0.00;99.90;;;;;;5027306;28;20438;-58
2022/12/06 03:34:31;;;;;;;55.70;11.10;;;0.10;99.90;;;;;;5021670;28;20500;-57
2022/12/06 03:36:58;;;;;;;119.23;12.27;;;0.10;99.90;;;;;;5007058;28;20484;-58
2022/12/06 03:39:39;;;;;;;60.60;11.27;;;0.10;99.90;;;;;;5024804;28;20462;-58
2022/12/06 03:42:05;;;;;;;43.53;8.70;;;0.10;99.90;;;;;;5022026;28;20917;-58
2022/12/06 03:44:32;;;;;;;48.70;8.70;;;0.00;99.90;;;;;;5027826;28;20444;-58
2022/12/06 03:47:05;;;;;;;34.07;7.77;;;0.00;99.90;;;;;;5027693;28;20540;-58
2022/12/06 03:49:54;;;;;;;33.90;10.20;;;-0.10;99.90;;;;;;5031073;28;20421;-58
2022/12/06 03:52:22;;;;;;;39.43;9.10;;;-0.10;99.90;;;;;;5029128;28;20439;-58
2022/12/06 03:54:48;;;;;;;43.93;8.17;;;-0.10;99.90;;;;;;5027891;28;20487;-58
2022/12/06 03:57:13;;;;;;;32.07;8.50;;;-0.10;99.90;;;;;;5028994;28;20455;-58
2022/12/06 03:59:39;;;;;;;51.73;10.30;;;-0.20;99.90;;;;;;5030945;28;20205;-58
2022/12/06 04:02:05;;;;;;;43.03;9.93;;;-0.20;99.90;;;;;;5026137;28;20221;-58
2022/12/06 04:04:31;;;;;;;32.40;9.57;;;-0.20;99.90;;;;;;5024235;28;20515;-58
2022/12/06 04:06:57;;;;;;;116.37;12.13;;;-0.20;99.90;;;;;;5023945;28;20257;-57
2022/12/06 04:12:59;;;;;;;62.60;13.27;;;-0.20;99.90;;;;;;5010764;28;20203;-58
2022/12/06 04:14:53;;;;;;;49.27;14.50;;;-0.30;99.90;;;;;;5026930;28;20460;-58
2022/12/06 04:20:03;;;;;;;114.20;15.30;;;-0.30;99.90;;;;;;5024632;28;20184;-58
2022/12/06 04:25:12;;;;;;;116.77;16.67;;;-0.30;99.90;;;;;;5025422;28;20440;-58
2022/12/06 04:38:43;;;;;;;60.43;12.23;;;-0.20;99.90;;;;;;5024614;28;20498;-59
2022/12/06 04:43:40;;;;;;;34.83;11.50;;;-0.20;99.90;;;;;;5026499;28;20997;-58
2022/12/06 04:44:02;;;;;;;41.57;12.13;;;-0.20;99.90;;;;;;5021256;28;20409;-58
2022/12/06 04:46:28;;;;;;;44.83;12.77;;;-0.20;99.90;;;;;;5009170;28;20449;-58
2022/12/06 04:48:54;;;;;;;41.03;14.57;;;-0.20;99.90;;;;;;5027374;28;20805;-59
2022/12/06 04:51:20;;;;;;;39.33;13.93;;;-0.20;99.90;;;;;;5024680;28;20175;-58
2022/12/06 04:53:46;;;;;;;39.50;16.20;;;-0.20;99.90;;;;;;5016456;28;20183;-56
2022/12/06 04:56:11;;;;;;;32.90;12.77;;;-0.10;99.90;;;;;;5005547;28;20470;-56
2022/12/06 04:58:37;;;;;;;38.43;13.13;;;-0.10;99.90;;;;;;5021391;28;20253;-55
2022/12/06 05:01:02;;;;;;;29.27;10.90;;;-0.10;99.90;;;;;;5018647;28;20269;-54
2022/12/06 05:03:28;;;;;;;32.13;13.13;;;0.00;99.90;;;;;;5026169;28;20279;-57
2022/12/06 05:05:54;;;;;;;28.17;13.37;;;0.00;99.90;;;;;;5014961;28;20316;-58
2022/12/06 05:08:19;;;;;;;44.17;14.90;;;0.00;99.90;;;;;;5014545;28;20205;-57
2022/12/06 05:10:46;;;;;;;39.93;13.70;;;0.10;99.90;;;;;;5016920;28;20276;-59
2022/12/06 05:13:12;;;;;;;29.00;12.70;;;0.10;99.90;;;;;;5020665;28;20765;-57
2022/12/06 05:15:38;;;;;;;36.37;13.27;;;0.10;99.90;;;;;;5014104;28;21117;-58
2022/12/06 05:18:04;;;;;;;42.03;16.60;;;0.20;99.90;;;;;;4997730;28;20465;-59
2022/12/06 05:20:29;;;;;;;30.07;11.90;;;0.20;99.90;;;;;;5017107;28;20176;-59
2022/12/06 05:22:55;;;;;;;29.03;11.80;;;0.20;99.90;;;;;;5028513;28;20189;-59
2022/12/06 05:25:20;;;;;;;25.67;11.87;;;0.20;99.90;;;;;;5023892;28;20655;-59
2022/12/06 05:27:46;;;;;;;32.67;12.70;;;0.20;99.90;;;;;;5021121;28;20242;-59
2022/12/06 05:30:12;;;;;;;28.50;11.67;;;0.20;99.90;;;;;;5019717;28;20863;-59
2022/12/06 05:32:39;;;;;;;28.03;12.73;;;0.20;99.90;;;;;;5021794;28;20189;-60
2022/12/06 05:35:06;;;;;;;29.73;12.20;;;0.20;99.90;;;;;;5018867;28;20465;-59
2022/12/06 05:37:31;;;;;;;26.63;12.67;;;0.20;99.90;;;;;;5023410;28;20531;-58
2022/12/06 05:39:57;;;;;;;35.47;12.47;;;0.20;99.90;;;;;;4980119;28;20444;-58
2022/12/06 05:42:22;;;;;;;27.43;11.77;;;0.20;99.90;;;;;;5024510;28;20182;-59
2022/12/06 05:44:48;;;;;;;39.20;11.80;;;0.30;99.90;;;;;;5017361;28;20169;-58
2022/12/06 05:47:13;;;;;;;38.23;13.50;;;0.30;99.90;;;;;;5009965;28;20594;-58
2022/12/06 05:49:39;;;;;;;22.73;11.50;;;0.30;99.90;;;;;;5028497;28;20200;-59
2022/12/06 05:52:04;;;;;;;40.63;14.77;;;0.30;99.90;;;;;;5012186;28;20433;-59
2022/12/06 05:54:30;;;;;;;33.67;13.20;;;0.30;99.90;;;;;;5023532;28;20245;-59
2022/12/06 05:56:56;;;;;;;35.07;13.13;;;0.30;99.90;;;;;;5023638;28;20210;-59
2022/12/06 05:59:21;;;;;;;31.13;12.67;;;0.30;99.90;;;;;;5029653;28;20163;-59
2022/12/06 06:01:47;;;;;;;31.07;13.10;;;0.30;99.90;;;;;;5023908;28;20243;-59
2022/12/06 06:04:12;;;;;;;33.27;13.53;;;0.40;99.90;;;;;;5028142;28;20216;-59
2022/12/06 06:06:38;;;;;;;26.80;12.70;;;0.40;99.90;;;;;;5034513;28;20209;-58
2022/12/06 06:09:03;;;;;;;28.40;11.23;;;0.40;99.90;;;;;;5022300;28;20310;-59
2022/12/06 06:11:29;;;;;;;31.97;13.13;;;0.40;99.90;;;;;;5024851;28;20178;-58
2022/12/06 06:13:55;;;;;;;34.03;13.50;;;0.40;99.90;;;;;;5030650;28;20711;-59
2022/12/06 06:16:21;;;;;;;27.93;12.30;;;0.40;99.90;;;;;;5028818;28;20201;-58
2022/12/06 06:18:46;;;;;;;37.47;13.20;;;0.40;99.90;;;;;;5006664;28;20171;-59
2022/12/06 06:21:12;;;;;;;28.23;12.10;;;0.40;99.90;;;;;;5026810;28;20182;-58
2022/12/06 06:23:38;;;;;;;30.97;12.30;;;0.40;99.90;;;;;;5028577;28;20193;-58
2022/12/06 06:26:08;;;;;;;26.03;11.03;;;0.40;99.90;;;;;;5009473;28;20444;-59
2022/12/06 06:28:34;;;;;;;43.60;13.23;;;0.40;99.90;;;;;;5028904;28;20184;-58
2022/12/06 06:31:04;;;;;;;30.17;12.73;;;0.40;99.90;;;;;;5021351;28;20468;-59
2022/12/06 06:33:31;;;;;;;31.57;12.77;;;0.40;99.90;;;;;;5027321;28;20316;-59
2022/12/06 06:35:56;;;;;;;27.53;13.00;;;0.40;99.90;;;;;;5027662;28;20461;-59
2022/12/06 06:38:22;;;;;;;31.47;13.50;;;0.40;99.90;;;;;;5028662;28;21068;-58
2022/12/06 06:40:47;;;;;;;28.67;13.43;;;0.40;99.90;;;;;;5030257;28;20179;-59
2022/12/06 06:43:19;;;;;;;31.57;13.33;;;0.40;99.90;;;;;;5031847;28;20175;-59
2022/12/06 06:45:53;;;;;;;30.87;12.70;;;0.40;99.90;;;;;;5020179;28;20172;-59
2022/12/06 06:48:19;;;;;;;27.57;13.63;;;0.40;99.90;;;;;;5029215;28;20524;-58
2022/12/06 06:50:44;;;;;;;36.73;14.67;;;0.40;99.90;;;;;;5029022;28;20516;-61
2022/12/06 06:53:10;;;;;;;35.90;13.13;;;0.40;99.90;;;;;;5027796;28;20182;-59
2022/12/06 06:55:36;;;;;;;34.10;13.37;;;0.40;99.90;;;;;;5025734;28;20837;-59
2022/12/06 06:58:02;;;;;;;30.23;12.70;;;0.40;99.90;;;;;;5019820;28;20288;-58
2022/12/06 07:00:28;;;;;;;33.63;13.17;;;0.40;99.90;;;;;;5029289;28;20441;-61
2022/12/06 07:02:54;;;;;;;34.23;13.20;;;0.40;99.90;;;;;;5030186;28;20436;-59
2022/12/06 07:05:19;;;;;;;28.60;12.93;;;0.40;99.90;;;;;;5025169;28;20664;-59
2022/12/06 07:07:46;;;;;;;34.50;13.40;;;0.40;99.90;;;;;;5022408;28;20210;-58
2022/12/06 07:10:12;;;;;;;36.60;13.90;;;0.50;99.90;;;;;;5027112;28;20206;-58
2022/12/06 07:12:37;;;;;;;30.10;14.00;;;0.40;99.90;;;;;;5023078;28;22275;-58
2022/12/06 07:15:04;;;;;;;36.10;14.30;;;0.50;99.90;;;;;;5028975;28;20309;-59
2022/12/06 07:17:30;;;;;;;32.10;13.60;;;0.50;99.90;;;;;;5028071;28;20222;-59
2022/12/06 07:19:55;;;;;;;37.60;15.53;;;0.50;99.90;;;;;;5005407;28;20957;-59
2022/12/06 07:22:21;;;;;;;31.43;13.20;;;0.50;99.90;;;;;;5008279;28;20710;-59
2022/12/06 07:24:46;;;;;;;43.60;14.80;;;0.50;99.90;;;;;;5029271;28;20178;-58
2022/12/06 07:27:12;;;;;;;38.57;13.53;;;0.60;99.90;;;;;;5027856;28;20221;-59
2022/12/06 07:29:37;;;;;;;32.10;14.27;;;0.60;99.90;;;;;;5010553;28;20178;-59
2022/12/06 07:32:04;;;;;;;35.13;14.20;;;0.60;99.90;;;;;;5007884;28;20194;-59
2022/12/06 07:34:29;;;;;;;30.13;12.83;;;0.60;99.90;;;;;;5028557;28;20232;-59
2022/12/06 07:36:55;;;;;;;40.63;14.03;;;0.60;99.90;;;;;;5028057;28;20495;-59
2022/12/06 07:39:21;;;;;;;31.73;12.33;;;0.60;99.90;;;;;;5029369;28;20896;-59
2022/12/06 07:47:15;;;;;;;31.07;13.63;;;0.60;99.90;;;;;;5024485;28;20475;-59
2022/12/06 07:49:40;;;;;;;35.43;12.50;;;0.50;99.90;;;;;;5027953;28;20433;-58
2022/12/06 07:52:06;;;;;;;38.30;15.07;;;0.50;99.90;;;;;;5005942;28;20183;-59
2022/12/06 07:54:32;;;;;;;26.93;12.43;;;0.50;99.90;;;;;;5028728;28;20194;-59
2022/12/06 07:56:57;;;;;;;28.43;11.53;;;0.60;99.90;;;;;;5027498;28;20205;-59
2022/12/06 07:59:23;;;;;;;26.53;11.23;;;0.60;99.90;;;;;;5026352;28;20183;-59
2022/12/06 08:01:51;;;;;;;28.87;13.40;;;0.60;99.90;;;;;;5027749;28;20189;-59
2022/12/06 08:04:17;;;;;;;26.93;12.23;;;0.70;99.90;;;;;;5007768;28;20424;-59
2022/12/06 08:06:43;;;;;;;25.47;10.60;;;0.70;99.90;;;;;;5028210;28;20456;-59
2022/12/06 08:09:09;;;;;;;26.20;10.80;;;0.70;99.90;;;;;;5011239;28;20448;-59
2022/12/06 08:11:35;;;;;;;28.73;13.23;;;0.70;99.90;;;;;;5027985;28;20208;-58
2022/12/06 08:14:01;;;;;;;30.60;12.63;;;0.80;99.90;;;;;;5009857;28;20429;-59
2022/12/06 08:16:27;;;;;;;28.63;11.80;;;0.80;99.90;;;;;;5019893;28;20539;-59
2022/12/06 08:18:54;;;;;;;25.20;12.50;;;0.80;99.90;;;;;;5027141;28;20855;-59
2022/12/06 08:21:20;;;;;;;30.53;12.00;;;0.80;99.90;;;;;;5024991;28;20184;-59
2022/12/06 08:23:45;;;;;;;23.40;11.70;;;0.80;99.90;;;;;;5023107;28;20503;-58
2022/12/06 08:26:14;;;;;;;27.30;12.43;;;0.90;99.90;;;;;;5028366;28;20184;-59
2022/12/06 08:28:41;;;;;;;29.10;11.70;;;0.90;99.90;;;;;;5025016;28;20185;-59
2022/12/06 08:31:13;;;;;;;25.23;11.83;;;1.00;99.90;;;;;;5026399;28;20528;-59
2022/12/06 08:33:39;;;;;;;25.23;12.13;;;1.00;99.90;;;;;;5026027;28;20427;-58
2022/12/06 08:36:16;;;;;;;25.87;10.97;;;1.00;99.90;;;;;;5010206;28;20455;-59
2022/12/06 08:38:42;;;;;;;26.53;11.30;;;1.10;99.90;;;;;;5022290;28;20184;-58
2022/12/06 08:41:54;;;;;;;28.87;12.60;;;1.10;99.90;;;;;;5018491;28;20427;-59
2022/12/06 08:43:55;;;;;;;28.07;12.50;;;1.10;99.90;;;;;;5027894;28;20667;-59
2022/12/06 08:46:21;;;;;;;25.20;12.63;;;1.10;99.90;;;;;;5022322;28;20468;-59
2022/12/06 08:48:46;;;;;;;26.97;12.97;;;1.20;99.90;;;;;;5027981;28;20429;-58
2022/12/06 08:51:12;;;;;;;30.73;11.83;;;1.20;99.90;;;;;;5028084;28;20209;-58
2022/12/06 08:53:37;;;;;;;25.60;13.10;;;1.20;99.90;;;;;;5026087;28;20713;-60
2022/12/06 08:56:03;;;;;;;25.90;13.60;;;1.20;99.90;;;;;;5027313;28;20210;-58
2022/12/06 08:58:29;;;;;;;25.93;13.03;;;1.20;99.90;;;;;;5029444;28;20164;-59
2022/12/06 09:00:55;;;;;;;30.70;13.87;;;1.30;99.90;;;;;;5029452;28;20167;-58
2022/12/06 09:03:21;;;;;;;26.63;13.20;;;1.30;99.90;;;;;;5024659;28;21201;-59
2022/12/06 09:05:46;;;;;;;26.53;13.27;;;1.40;99.90;;;;;;5026769;28;20184;-58
2022/12/06 09:08:12;;;;;;;26.83;11.90;;;1.40;99.90;;;;;;5029535;28;20203;-58
2022/12/06 09:10:37;;;;;;;27.20;12.00;;;1.40;99.90;;;;;;5026930;28;20553;-59
2022/12/06 09:13:03;;;;;;;25.50;12.23;;;1.50;99.90;;;;;;5032030;28;20210;-59
2022/12/06 09:15:29;;;;;;;25.53;11.90;;;1.50;99.90;;;;;;5024228;28;20203;-59
2022/12/06 09:17:54;;;;;;;26.60;12.53;;;1.60;99.90;;;;;;5025183;28;20183;-59
2022/12/06 09:20:20;;;;;;;26.80;11.50;;;1.60;99.90;;;;;;5025435;28;20697;-59
2022/12/06 09:22:46;;;;;;;23.60;12.77;;;1.70;99.90;;;;;;5029122;28;20171;-58
2022/12/06 09:25:11;;;;;;;29.67;13.07;;;1.70;99.90;;;;;;5023206;28;20197;-59
2022/12/06 09:27:38;;;;;;;38.47;14.50;;;1.70;99.90;;;;;;5010475;28;20248;-59
2022/12/06 09:30:04;;;;;;;31.77;14.40;;;1.70;99.90;;;;;;5025881;28;20249;-59
2022/12/06 09:32:30;;;;;;;32.47;15.00;;;1.80;99.90;;;;;;5031409;28;21078;-59
2022/12/06 09:34:55;;;;;;;30.10;14.40;;;1.80;99.90;;;;;;5026096;28;20474;-58
2022/12/06 09:37:21;;;;;;;30.20;14.60;;;1.80;99.90;;;;;;5023903;28;20223;-59
2022/12/06 09:39:51;;;;;;;31.23;14.17;;;1.80;99.90;;;;;;5028985;28;20168;-59
2022/12/06 09:42:35;;;;;;;30.20;15.07;;;1.80;99.90;;;;;;5027772;28;20233;-59
2022/12/06 09:45:03;;;;;;;27.17;13.70;;;1.80;99.90;;;;;;5019190;28;20461;-59
2022/12/06 09:47:38;;;;;;;29.77;13.70;;;1.90;99.90;;;;;;5022137;28;20461;-59
2022/12/06 09:50:21;;;;;;;30.17;13.77;;;1.90;99.90;;;;;;5023083;28;20463;-59
2022/12/06 09:52:55;;;;;;;26.30;13.20;;;1.90;99.90;;;;;;5022473;28;20427;-59
2022/12/06 09:55:21;;;;;;;25.50;13.57;;;1.90;99.90;;;;;;5021615;28;20494;-58
2022/12/06 09:57:52;;;;;;;27.50;14.10;;;2.00;99.90;;;;;;5021569;28;20500;-58
2022/12/06 10:00:21;;;;;;;30.53;15.03;;;2.00;99.90;;;;;;5021049;28;21105;-59
2022/12/06 10:03:08;;;;;;;27.67;12.67;;;2.10;99.90;;;;;;5011528;28;21048;-59
2022/12/06 10:05:42;;;;;;;34.23;13.50;;;2.10;99.90;;;;;;5020741;28;20444;-58
2022/12/06 10:08:14;;;;;;;25.90;13.33;;;2.10;99.90;;;;;;5018578;28;20453;-59
2022/12/06 10:11:01;;;;;;;31.73;14.90;;;2.20;99.90;;;;;;5027174;28;20447;-58
2022/12/06 10:13:54;;;;;;;36.17;16.00;;;2.20;99.90;;;;;;5023922;28;20517;-58
2022/12/06 10:16:50;;;;;;;31.03;15.00;;;2.30;99.90;;;;;;5030890;28;20493;-58
2022/12/06 10:19:42;;;;;;;39.20;16.43;;;2.40;99.90;;;;;;5017965;28;20467;-58
2022/12/06 10:22:41;;;;;;;29.63;15.00;;;2.40;99.90;;;;;;5023990;28;20438;-58
2022/12/06 10:25:11;;;;;;;23.10;12.57;;;2.60;99.90;;;;;;5026853;28;20488;-58
2022/12/06 10:27:43;;;;;;;21.03;11.77;;;2.70;99.90;;;;;;5005004;28;20458;-53
2022/12/06 10:30:11;;;;;;;22.47;11.80;;;3.00;99.90;;;;;;5026978;28;20448;-58
2022/12/06 10:33:06;;;;;;;23.43;11.47;;;3.10;99.90;;;;;;5028471;28;20462;-58
2022/12/06 10:35:52;;;;;;;18.93;10.90;;;3.30;99.90;;;;;;5032897;28;20466;-59
2022/12/06 10:38:36;;;;;;;28.10;12.50;;;3.50;99.90;;;;;;5022870;28;20454;-58
2022/12/06 10:41:20;;;;;;;22.80;11.17;;;3.70;99.90;;;;;;5029917;28;20987;-58
2022/12/06 10:44:09;;;;;;;19.60;10.10;;;3.80;99.90;;;;;;5028637;28;20435;-59
2022/12/06 10:49:29;;;;;;;19.73;11.03;;;3.90;99.90;;;;;;5030924;28;20453;-58
2022/12/06 10:52:30;;;;;;;21.23;11.23;;;3.90;99.90;;;;;;5029419;28;20460;-58
2022/12/06 10:55:08;;;;;;;23.23;12.50;;;3.90;99.90;;;;;;5005169;28;20573;-57
2022/12/06 10:57:59;;;;;;;23.43;11.30;;;3.90;99.90;;;;;;5018816;28;20469;-58
2022/12/06 11:00:31;;;;;;;23.47;13.03;;;3.90;99.90;;;;;;5026652;28;20555;-63
2022/12/06 11:03:04;;;;;;;28.17;13.03;;;4.00;99.90;;;;;;5017599;28;20426;-59
2022/12/06 11:06:04;;;;;;;23.70;12.67;;;4.20;99.90;;;;;;5008405;28;20463;-58
2022/12/06 11:08:35;;;;;;;25.37;11.90;;;4.30;99.90;;;;;;5004696;28;20466;-57
2022/12/06 11:11:09;;;;;;;22.73;11.53;;;4.40;99.90;;;;;;5020793;28;20438;-58
2022/12/06 11:13:41;;;;;;;27.20;12.60;;;4.60;99.90;;;;;;5008858;28;20496;-58
2022/12/06 11:16:11;;;;;;;24.67;12.33;;;4.60;99.90;;;;;;5024140;28;20467;-58
2022/12/06 11:18:38;;;;;;;25.83;12.63;;;4.70;99.90;;;;;;5024479;28;20525;-59
2022/12/06 11:21:34;;;;;;;23.77;13.23;;;4.80;99.90;;;;;;5031204;28;20442;-58
2022/12/06 11:24:02;;;;;;;21.57;12.23;;;4.80;99.90;;;;;;5027356;28;20562;-59
2022/12/06 11:27:20;;;;;;;23.07;11.90;;;4.90;99.90;;;;;;5027912;28;20935;-58
2022/12/06 11:29:48;;;;;;;28.10;13.07;;;5.00;99.90;;;;;;4957826;28;20445;-57
2022/12/06 11:32:15;;;;;;;21.53;11.50;;;5.10;99.90;;;;;;4964829;28;20455;-59
2022/12/06 11:34:53;;;;;;;22.20;12.87;;;5.20;99.90;;;;;;5000607;28;20464;-57
2022/12/06 11:37:21;;;;;;;19.90;12.20;;;5.20;99.90;;;;;;5020802;28;20460;-59
2022/12/06 11:39:50;;;;;;;21.53;13.00;;;5.20;99.90;;;;;;5028618;28;20430;-59
2022/12/06 11:42:24;;;;;;;22.33;12.47;;;5.10;99.90;;;;;;5007733;28;20430;-59
2022/12/06 11:44:58;;;;;;;27.53;13.00;;;5.00;99.90;;;;;;5023370;28;20453;-59
2022/12/06 11:47:24;;;;;;;28.30;13.03;;;5.00;99.90;;;;;;5022526;28;20458;-58
2022/12/06 11:49:54;;;;;;;23.60;12.60;;;4.90;99.90;;;;;;5026930;28;20438;-59
2022/12/06 11:52:34;;;;;;;19.83;10.83;;;4.90;99.90;;;;;;5026050;28;20572;-58
2022/12/06 11:55:14;;;;;;;23.63;12.00;;;4.80;99.90;;;;;;5011168;28;20540;-58
2022/12/06 11:57:48;;;;;;;21.53;11.97;;;4.70;99.90;;;;;;5027425;28;20909;-57
2022/12/06 12:00:20;;;;;;;24.63;10.33;;;4.70;99.90;;;;;;5028369;28;20938;-58
2022/12/06 12:02:47;;;;;;;15.13;9.27;;;4.60;99.90;;;;;;5026401;28;20442;-58
2022/12/06 12:05:33;;;;;;;13.93;8.10;;;4.60;99.90;;;;;;5023451;28;20836;-58
2022/12/06 12:08:29;;;;;;;18.50;7.70;;;4.60;99.90;;;;;;5025497;28;20492;-59
2022/12/06 12:10:59;;;;;;;11.77;7.07;;;4.60;99.90;;;;;;5018158;28;20439;-58
2022/12/06 12:13:47;;;;;;;14.33;7.00;;;4.60;99.90;;;;;;5022491;28;20465;-57
2022/12/06 12:16:31;;;;;;;12.13;7.30;;;4.60;99.90;;;;;;5018248;28;20477;-60
2022/12/06 12:19:27;;;;;;;13.50;8.37;;;4.60;99.90;;;;;;5026272;28;20499;-59
2022/12/06 12:21:55;;;;;;;11.50;7.03;;;4.70;99.90;;;;;;5008799;28;20500;-59
2022/12/06 12:24:46;;;;;;;12.37;7.37;;;4.70;99.90;;;;;;5021733;28;20954;-59
2022/12/06 12:27:32;;;;;;;9.93;6.87;;;4.70;99.90;;;;;;5008978;28;20822;-58
2022/12/06 12:30:28;;;;;;;14.73;7.30;;;4.70;99.90;;;;;;5016730;28;20435;-60
2022/12/06 12:33:15;;;;;;;13.73;7.43;;;4.70;99.90;;;;;;5024836;28;20442;-58
2022/12/06 12:35:43;;;;;;;12.63;7.27;;;4.80;99.90;;;;;;5022211;28;20461;-59
2022/12/06 12:38:09;;;;;;;11.37;6.70;;;4.80;99.90;;;;;;5010276;28;20490;-58
2022/12/06 12:40:49;;;;;;;8.70;6.47;;;4.80;99.90;;;;;;5029282;28;20458;-59
2022/12/06 12:43:20;;;;;;;11.97;6.97;;;4.80;99.90;;;;;;5023437;28;20183;-59
2022/12/06 12:46:09;;;;;;;12.93;7.30;;;4.90;99.90;;;;;;5027075;28;20973;-59
2022/12/06 12:48:37;;;;;;;15.50;7.80;;;4.90;99.90;;;;;;5020850;28;20426;-59
2022/12/06 12:51:05;;;;;;;10.30;7.23;;;4.90;99.90;;;;;;5024131;28;20588;-58
2022/12/06 12:53:36;;;;;;;10.90;7.03;;;4.90;99.90;;;;;;5024384;28;20460;-58
2022/12/06 12:56:16;;;;;;;11.07;7.13;;;5.00;99.90;;;;;;5019317;28;20493;-57
2022/12/06 12:58:43;;;;;;;11.77;7.07;;;5.00;99.90;;;;;;5025330;28;20978;-57
2022/12/06 13:01:23;;;;;;;11.73;7.33;;;5.00;99.90;;;;;;5022592;28;20471;-59
2022/12/06 13:03:56;;;;;;;10.60;7.30;;;5.10;99.90;;;;;;5007137;28;20484;-57
2022/12/06 13:06:45;;;;;;;9.60;6.30;;;5.10;99.90;;;;;;5021082;28;20459;-58
2022/12/06 13:09:26;;;;;;;8.50;5.87;;;5.20;99.90;;;;;;5018654;28;20434;-58
2022/12/06 13:12:28;;;;;;;8.33;5.83;;;5.20;99.90;;;;;;5029356;28;20475;-59
2022/12/06 13:15:02;;;;;;;7.50;5.20;;;5.20;99.90;;;;;;5021604;28;20477;-59
2022/12/06 13:17:32;;;;;;;7.90;4.60;;;5.20;99.90;;;;;;5021173;28;21170;-59
2022/12/06 13:20:00;;;;;;;15.87;5.53;;;5.30;99.90;;;;;;5026645;28;20426;-59
2022/12/06 13:22:30;;;;;;;12.07;7.23;;;5.30;99.90;;;;;;5020917;28;20449;-59